Terminal Aerodrome Forecast
Issued by NWS Sioux Falls, SD

Home | Current Version | Previous Version | Text Only | Print | Product List | Glossary On
Versions: 1 2 3 4 5 6 7 8 9 10 11 12 13 14 15 16 17 18 19 20 21 22 23 24 25 26 27 28 29
000
FTUS43 KFSD 241500 AAB
TAFSUX
TAF AMD
KSUX 241542Z 2416/2512 14013KT P6SM SCT060 BKN120
     FM241700 16017G23KT P6SM SCT120 BKN200
     FM250200 15013KT P6SM BKN120
     FM250800 16014G20KT P6SM BKN120=

USA.gov is the U.S. government's official web portal to all federal, state and local government web resources and services.